sensor_id;sensor_type;location;lat;lon;timestamp;pressure;altitude;pressure_sealevel;temperature;humidity
73692;BME280;61996;49.910;35.562;2023-05-16T00:01:53;99635.31;;;21.89;32.88
73692;BME280;61996;49.910;35.562;2023-05-16T00:04:58;99633.59;;;21.54;32.90
73692;BME280;61996;49.910;35.562;2023-05-16T00:08:01;99639.31;;;21.59;33.06
73692;BME280;61996;49.910;35.562;2023-05-16T00:11:04;99637.31;;;21.61;32.90
73692;BME280;61996;49.910;35.562;2023-05-16T00:14:06;99638.41;;;21.50;33.10
73692;BME280;61996;49.910;35.562;2023-05-16T00:17:09;99629.91;;;21.55;33.12
73692;BME280;61996;49.910;35.562;2023-05-16T00:20:14;99630.28;;;21.60;33.10
73692;BME280;61996;49.910;35.562;2023-05-16T00:23:19;99633.22;;;21.49;33.18
73692;BME280;61996;49.910;35.562;2023-05-16T00:26:22;99640.63;;;21.19;33.65
73692;BME280;61996;49.910;35.562;2023-05-16T00:29:25;99641.72;;;21.08;33.99
73692;BME280;61996;49.910;35.562;2023-05-16T00:32:27;99648.63;;;21.29;33.55
73692;BME280;61996;49.910;35.562;2023-05-16T00:35:32;99640.59;;;21.55;33.10
73692;BME280;61996;49.910;35.562;2023-05-16T00:38:36;99635.03;;;21.92;32.99
73692;BME280;61996;49.910;35.562;2023-05-16T00:41:39;99636.47;;;22.47;32.72
73692;BME280;61996;49.910;35.562;2023-05-16T00:44:42;99627.16;;;22.67;32.65
73692;BME280;61996;49.910;35.562;2023-05-16T00:47:45;99632.19;;;22.78;32.35
73692;BME280;61996;49.910;35.562;2023-05-16T00:50:49;99633.22;;;22.85;32.14
73692;BME280;61996;49.910;35.562;2023-05-16T00:53:53;99627.22;;;22.91;32.69
73692;BME280;61996;49.910;35.562;2023-05-16T00:56:56;99633.13;;;22.95;32.52
73692;BME280;61996;49.910;35.562;2023-05-16T00:59:59;99620.19;;;22.98;32.71
73692;BME280;61996;49.910;35.562;2023-05-16T01:03:03;99628.91;;;23.01;32.44
73692;BME280;61996;49.910;35.562;2023-05-16T01:06:07;99639.16;;;23.05;32.23
73692;BME280;61996;49.910;35.562;2023-05-16T01:09:12;99628.94;;;23.09;32.49
73692;BME280;61996;49.910;35.562;2023-05-16T01:12:17;99633.44;;;23.08;32.59
73692;BME280;61996;49.910;35.562;2023-05-16T01:15:25;99638.97;;;23.07;32.43
73692;BME280;61996;49.910;35.562;2023-05-16T01:18:32;99639.31;;;23.12;33.05
73692;BME280;61996;49.910;35.562;2023-05-16T01:21:43;99644.88;;;23.10;32.47
73692;BME280;61996;49.910;35.562;2023-05-16T01:24:52;99644.03;;;23.10;32.78
73692;BME280;61996;49.910;35.562;2023-05-16T01:27:57;99649.72;;;23.07;32.81
73692;BME280;61996;49.910;35.562;2023-05-16T01:31:01;99642.34;;;23.09;32.58
73692;BME280;61996;49.910;35.562;2023-05-16T01:34:04;99645.53;;;23.12;32.64
73692;BME280;61996;49.910;35.562;2023-05-16T01:37:08;99643.69;;;23.13;32.80
73692;BME280;61996;49.910;35.562;2023-05-16T01:40:15;99638.50;;;23.11;32.66
73692;BME280;61996;49.910;35.562;2023-05-16T01:43:23;99639.81;;;23.15;32.65
73692;BME280;61996;49.910;35.562;2023-05-16T01:46:28;99638.84;;;23.16;32.78
73692;BME280;61996;49.910;35.562;2023-05-16T01:49:33;99645.19;;;23.15;32.51
73692;BME280;61996;49.910;35.562;2023-05-16T01:52:37;99647.72;;;23.17;33.08
73692;BME280;61996;49.910;35.562;2023-05-16T01:55:44;99646.53;;;23.19;32.94
73692;BME280;61996;49.910;35.562;2023-05-16T01:58:48;99643.69;;;23.21;32.47
73692;BME280;61996;49.910;35.562;2023-05-16T02:01:52;99634.13;;;23.18;32.55
73692;BME280;61996;49.910;35.562;2023-05-16T02:04:54;99635.81;;;23.28;32.80
73692;BME280;61996;49.910;35.562;2023-05-16T02:07:57;99647.38;;;23.28;33.11
73692;BME280;61996;49.910;35.562;2023-05-16T02:11:00;99646.03;;;23.32;32.95
73692;BME280;61996;49.910;35.562;2023-05-16T02:14:04;99640.34;;;23.27;33.04
73692;BME280;61996;49.910;35.562;2023-05-16T02:17:07;99641.00;;;23.29;33.11
73692;BME280;61996;49.910;35.562;2023-05-16T02:20:10;99645.53;;;23.29;32.98
73692;BME280;61996;49.910;35.562;2023-05-16T02:23:13;99641.34;;;23.26;32.77
73692;BME280;61996;49.910;35.562;2023-05-16T02:26:16;99638.66;;;23.26;33.03
73692;BME280;61996;49.910;35.562;2023-05-16T02:29:20;99641.88;;;23.30;32.93
73692;BME280;61996;49.910;35.562;2023-05-16T02:32:23;99638.66;;;23.26;33.25
73692;BME280;61996;49.910;35.562;2023-05-16T02:35:26;99632.47;;;23.25;33.05
73692;BME280;61996;49.910;35.562;2023-05-16T02:38:29;99623.22;;;23.28;33.37
73692;BME280;61996;49.910;35.562;2023-05-16T02:41:32;99628.44;;;23.30;33.06
73692;BME280;61996;49.910;35.562;2023-05-16T02:44:36;99639.84;;;23.32;33.03
73692;BME280;61996;49.910;35.562;2023-05-16T02:47:39;99628.44;;;23.38;32.83
73692;BME280;61996;49.910;35.562;2023-05-16T02:50:42;99629.44;;;23.37;33.09
73692;BME280;61996;49.910;35.562;2023-05-16T02:53:44;99622.25;;;23.37;33.19
73692;BME280;61996;49.910;35.562;2023-05-16T02:56:47;99623.91;;;23.38;32.91
73692;BME280;61996;49.910;35.562;2023-05-16T02:59:52;99617.72;;;23.38;33.22
73692;BME280;61996;49.910;35.562;2023-05-16T03:02:54;99629.09;;;23.40;32.91
73692;BME280;61996;49.910;35.562;2023-05-16T03:05:58;99632.97;;;23.37;33.34
73692;BME280;61996;49.910;35.562;2023-05-16T03:09:01;99634.13;;;23.43;33.30
73692;BME280;61996;49.910;35.562;2023-05-16T03:12:04;99641.00;;;23.45;33.18
73692;BME280;61996;49.910;35.562;2023-05-16T03:15:09;99634.81;;;23.45;33.30
73692;BME280;61996;49.910;35.562;2023-05-16T03:18:12;99636.81;;;23.43;33.12
73692;BME280;61996;49.910;35.562;2023-05-16T03:21:15;99632.28;;;23.43;33.25
73692;BME280;61996;49.910;35.562;2023-05-16T03:24:17;99637.16;;;23.48;33.20
73692;BME280;61996;49.910;35.562;2023-05-16T03:27:23;99637.97;;;23.48;33.28
73692;BME280;61996;49.910;35.562;2023-05-16T03:30:29;99638.66;;;23.50;33.22
73692;BME280;61996;49.910;35.562;2023-05-16T03:33:32;99641.16;;;23.60;33.03
73692;BME280;61996;49.910;35.562;2023-05-16T03:36:37;99641.69;;;23.64;33.36
73692;BME280;61996;49.910;35.562;2023-05-16T03:39:40;99647.88;;;23.56;33.50
73692;BME280;61996;49.910;35.562;2023-05-16T03:42:43;99650.22;;;23.59;33.76
73692;BME280;61996;49.910;35.562;2023-05-16T03:45:47;99654.91;;;23.57;33.42
73692;BME280;61996;49.910;35.562;2023-05-16T03:48:50;99642.69;;;23.63;33.54
73692;BME280;61996;49.910;35.562;2023-05-16T03:51:53;99653.78;;;23.68;33.32
73692;BME280;61996;49.910;35.562;2023-05-16T03:54:56;99647.06;;;23.72;33.34
73692;BME280;61996;49.910;35.562;2023-05-16T03:57:58;99653.09;;;23.74;33.20
73692;BME280;61996;49.910;35.562;2023-05-16T04:01:03;99648.22;;;23.77;33.08
73692;BME280;61996;49.910;35.562;2023-05-16T04:04:05;99654.41;;;23.78;33.14
73692;BME280;61996;49.910;35.562;2023-05-16T04:07:08;99645.38;;;23.79;33.27
73692;BME280;61996;49.910;35.562;2023-05-16T04:10:13;99649.06;;;23.86;33.09
73692;BME280;61996;49.910;35.562;2023-05-16T04:13:16;99645.34;;;23.87;33.11
73692;BME280;61996;49.910;35.562;2023-05-16T04:16:21;99640.63;;;23.89;33.29
73692;BME280;61996;49.910;35.562;2023-05-16T04:19:23;99651.72;;;23.94;33.31
73692;BME280;61996;49.910;35.562;2023-05-16T04:22:26;99659.59;;;23.96;32.94
73692;BME280;61996;49.910;35.562;2023-05-16T04:25:29;99654.88;;;23.98;32.84
73692;BME280;61996;49.910;35.562;2023-05-16T04:28:32;99650.03;;;24.01;32.94
73692;BME280;61996;49.910;35.562;2023-05-16T04:31:36;99641.44;;;24.06;32.87
73692;BME280;61996;49.910;35.562;2023-05-16T04:34:39;99641.09;;;24.09;32.78
73692;BME280;61996;49.910;35.562;2023-05-16T04:37:44;99651.47;;;24.12;32.83
73692;BME280;61996;49.910;35.562;2023-05-16T04:40:47;99647.63;;;24.15;32.52
73692;BME280;61996;49.910;35.562;2023-05-16T04:43:51;99655.16;;;24.19;32.30
73692;BME280;61996;49.910;35.562;2023-05-16T04:46:55;99673.31;;;24.17;32.01
73692;BME280;61996;49.910;35.562;2023-05-16T04:49:58;99668.59;;;24.19;32.66
73692;BME280;61996;49.910;35.562;2023-05-16T04:53:01;99666.22;;;24.24;32.83
73692;BME280;61996;49.910;35.562;2023-05-16T04:56:04;99657.34;;;24.24;32.68
73692;BME280;61996;49.910;35.562;2023-05-16T04:59:07;99662.34;;;24.27;32.45
73692;BME280;61996;49.910;35.562;2023-05-16T05:02:11;99677.63;;;24.26;32.36
73692;BME280;61996;49.910;35.562;2023-05-16T05:05:14;99675.63;;;24.28;32.46
73692;BME280;61996;49.910;35.562;2023-05-16T05:08:17;99678.81;;;24.32;32.77
73692;BME280;61996;49.910;35.562;2023-05-16T05:11:20;99678.50;;;24.35;32.55
73692;BME280;61996;49.910;35.562;2023-05-16T05:14:23;99677.31;;;24.38;32.42
73692;BME280;61996;49.910;35.562;2023-05-16T05:17:28;99675.44;;;24.38;32.69
73692;BME280;61996;49.910;35.562;2023-05-16T05:20:31;99676.28;;;24.39;32.71
73692;BME280;61996;49.910;35.562;2023-05-16T05:23:34;99671.09;;;24.37;32.23
73692;BME280;61996;49.910;35.562;2023-05-16T05:26:37;99673.09;;;24.43;32.20
73692;BME280;61996;49.910;35.562;2023-05-16T05:29:40;99671.72;;;24.47;32.39
73692;BME280;61996;49.910;35.562;2023-05-16T05:32:44;99672.72;;;24.46;32.46
73692;BME280;61996;49.910;35.562;2023-05-16T05:35:47;99680.09;;;24.52;32.26
73692;BME280;61996;49.910;35.562;2023-05-16T05:38:50;99677.06;;;24.55;32.11
73692;BME280;61996;49.910;35.562;2023-05-16T05:41:53;99679.78;;;24.55;32.49
73692;BME280;61996;49.910;35.562;2023-05-16T05:44:55;99680.25;;;24.59;32.15
73692;BME280;61996;49.910;35.562;2023-05-16T05:48:00;99687.47;;;24.58;32.18
73692;BME280;61996;49.910;35.562;2023-05-16T05:51:03;99687.78;;;24.64;32.00
73692;BME280;61996;49.910;35.562;2023-05-16T05:54:05;99685.09;;;24.64;32.07
73692;BME280;61996;49.910;35.562;2023-05-16T05:57:08;99684.91;;;24.65;31.70
73692;BME280;61996;49.910;35.562;2023-05-16T06:00:11;99691.31;;;24.64;31.93
73692;BME280;61996;49.910;35.562;2023-05-16T06:03:15;99695.16;;;24.70;32.07
73692;BME280;61996;49.910;35.562;2023-05-16T06:06:18;99690.63;;;24.70;32.25
73692;BME280;61996;49.910;35.562;2023-05-16T06:09:21;99691.09;;;24.74;31.81
73692;BME280;61996;49.910;35.562;2023-05-16T06:12:24;99690.25;;;24.73;31.97
73692;BME280;61996;49.910;35.562;2023-05-16T06:15:27;99686.72;;;24.73;32.23
73692;BME280;61996;49.910;35.562;2023-05-16T06:18:31;99697.44;;;24.81;32.02
73692;BME280;61996;49.910;35.562;2023-05-16T06:21:34;99694.28;;;24.77;31.95
73692;BME280;61996;49.910;35.562;2023-05-16T06:24:37;99695.13;;;24.78;31.97
73692;BME280;61996;49.910;35.562;2023-05-16T06:27:40;99693.09;;;24.80;32.04
73692;BME280;61996;49.910;35.562;2023-05-16T06:30:43;99689.09;;;24.76;32.10
73692;BME280;61996;49.910;35.562;2023-05-16T06:33:49;99690.75;;;24.77;32.15
73692;BME280;61996;49.910;35.562;2023-05-16T06:36:52;99688.22;;;24.75;32.16
73692;BME280;61996;49.910;35.562;2023-05-16T06:39:55;99701.97;;;24.80;31.99
73692;BME280;61996;49.910;35.562;2023-05-16T06:42:58;99692.06;;;24.81;32.05
73692;BME280;61996;49.910;35.562;2023-05-16T06:46:00;99692.38;;;24.86;31.91
73692;BME280;61996;49.910;35.562;2023-05-16T06:49:05;99690.22;;;24.81;32.24
73692;BME280;61996;49.910;35.562;2023-05-16T06:52:08;99691.88;;;24.82;32.42
73692;BME280;61996;49.910;35.562;2023-05-16T06:55:12;99692.56;;;24.84;32.35
73692;BME280;61996;49.910;35.562;2023-05-16T06:58:15;99691.72;;;24.84;32.32
73692;BME280;61996;49.910;35.562;2023-05-16T07:01:18;99697.09;;;24.84;32.16
73692;BME280;61996;49.910;35.562;2023-05-16T07:04:22;99695.72;;;24.88;32.02
73692;BME280;61996;49.910;35.562;2023-05-16T07:07:25;99693.22;;;24.86;32.07
73692;BME280;61996;49.910;35.562;2023-05-16T07:10:28;99702.63;;;24.91;32.23
73692;BME280;61996;49.910;35.562;2023-05-16T07:13:31;99694.69;;;24.89;32.10
73692;BME280;61996;49.910;35.562;2023-05-16T07:16:36;99698.03;;;24.99;31.62
73692;BME280;61996;49.910;35.562;2023-05-16T07:19:40;99702.75;;;24.97;31.88
73692;BME280;61996;49.910;35.562;2023-05-16T07:22:43;99694.19;;;24.94;32.08
73692;BME280;61996;49.910;35.562;2023-05-16T07:25:46;99704.41;;;24.98;31.75
73692;BME280;61996;49.910;35.562;2023-05-16T07:28:49;99705.59;;;24.96;32.28
73692;BME280;61996;49.910;35.562;2023-05-16T07:31:52;99699.03;;;24.98;31.94
73692;BME280;61996;49.910;35.562;2023-05-16T07:34:56;99698.34;;;24.96;32.27
73692;BME280;61996;49.910;35.562;2023-05-16T07:38:00;99697.19;;;24.99;32.09
73692;BME280;61996;49.910;35.562;2023-05-16T07:41:03;99687.25;;;24.99;32.19
73692;BME280;61996;49.910;35.562;2023-05-16T07:44:06;99690.94;;;25.06;32.14
73692;BME280;61996;49.910;35.562;2023-05-16T07:47:09;99687.72;;;25.03;32.25
73692;BME280;61996;49.910;35.562;2023-05-16T07:50:13;99698.50;;;25.03;32.47
73692;BME280;61996;49.910;35.562;2023-05-16T07:53:16;99687.91;;;25.01;32.20
73692;BME280;61996;49.910;35.562;2023-05-16T07:56:19;99690.59;;;25.01;32.53
73692;BME280;61996;49.910;35.562;2023-05-16T07:59:22;99688.75;;;25.02;32.44
73692;BME280;61996;49.910;35.562;2023-05-16T08:02:25;99681.53;;;25.10;32.28
73692;BME280;61996;49.910;35.562;2023-05-16T08:05:33;99682.69;;;25.08;32.36
73692;BME280;61996;49.910;35.562;2023-05-16T08:08:36;99684.91;;;25.04;32.54
73692;BME280;61996;49.910;35.562;2023-05-16T08:11:39;99684.22;;;25.10;32.60
73692;BME280;61996;49.910;35.562;2023-05-16T08:14:42;99678.81;;;25.10;32.61
73692;BME280;61996;49.910;35.562;2023-05-16T08:17:45;99685.50;;;25.14;32.38
73692;BME280;61996;49.910;35.562;2023-05-16T08:20:49;99686.72;;;25.12;32.57
73692;BME280;61996;49.910;35.562;2023-05-16T08:23:52;99682.81;;;25.14;32.38
73692;BME280;61996;49.910;35.562;2023-05-16T08:26:55;99679.72;;;25.26;32.35
73692;BME280;61996;49.910;35.562;2023-05-16T08:29:57;99680.91;;;25.23;32.50
73692;BME280;61996;49.910;35.562;2023-05-16T08:33:00;99679.72;;;25.26;32.76
73692;BME280;61996;49.910;35.562;2023-05-16T08:36:08;99668.47;;;25.22;34.29
73692;BME280;61996;49.910;35.562;2023-05-16T08:39:10;99674.88;;;25.21;34.09
73692;BME280;61996;49.910;35.562;2023-05-16T08:42:13;99670.50;;;25.20;33.91
73692;BME280;61996;49.910;35.562;2023-05-16T08:45:16;99675.88;;;25.20;33.43
73692;BME280;61996;49.910;35.562;2023-05-16T08:48:20;99665.31;;;25.19;33.74
73692;BME280;61996;49.910;35.562;2023-05-16T08:51:26;99676.72;;;25.43;32.79
73692;BME280;61996;49.910;35.562;2023-05-16T08:54:29;99673.97;;;25.29;33.57
73692;BME280;61996;49.910;35.562;2023-05-16T08:57:33;99671.16;;;25.22;34.02
73692;BME280;61996;49.910;35.562;2023-05-16T09:00:36;99662.25;;;25.22;34.05
73692;BME280;61996;49.910;35.562;2023-05-16T09:03:40;99658.72;;;25.21;34.48
73692;BME280;61996;49.910;35.562;2023-05-16T09:06:45;99662.91;;;25.24;34.01
73692;BME280;61996;49.910;35.562;2023-05-16T09:09:48;99659.56;;;25.22;34.04
73692;BME280;61996;49.910;35.562;2023-05-16T09:12:51;99654.81;;;25.24;34.32
73692;BME280;61996;49.910;35.562;2023-05-16T09:16:07;99652.97;;;25.24;33.96
73692;BME280;61996;49.910;35.562;2023-05-16T09:19:11;99653.81;;;25.25;33.41
73692;BME280;61996;49.910;35.562;2023-05-16T09:22:16;99651.97;;;25.25;33.58
73692;BME280;61996;49.910;35.562;2023-05-16T09:25:19;99653.97;;;25.23;33.43
73692;BME280;61996;49.910;35.562;2023-05-16T09:28:32;99647.41;;;25.26;33.54
73692;BME280;61996;49.910;35.562;2023-05-16T09:31:35;99642.69;;;25.28;33.14
73692;BME280;61996;49.910;35.562;2023-05-16T09:34:41;99647.25;;;25.27;33.35
73692;BME280;61996;49.910;35.562;2023-05-16T09:37:46;99641.66;;;25.29;33.07
73692;BME280;61996;49.910;35.562;2023-05-16T09:40:49;99643.34;;;25.30;32.97
73692;BME280;61996;49.910;35.562;2023-05-16T09:43:52;99649.22;;;25.33;33.01
73692;BME280;61996;49.910;35.562;2023-05-16T09:46:55;99643.00;;;25.33;33.08
73692;BME280;61996;49.910;35.562;2023-05-16T09:49:58;99640.94;;;25.35;32.91
73692;BME280;61996;49.910;35.562;2023-05-16T09:53:03;99643.63;;;25.35;32.70
73692;BME280;61996;49.910;35.562;2023-05-16T09:56:06;99644.66;;;25.34;32.94
73692;BME280;61996;49.910;35.562;2023-05-16T09:59:10;99635.56;;;25.35;32.93
73692;BME280;61996;49.910;35.562;2023-05-16T10:02:13;99643.25;;;25.38;32.71
73692;BME280;61996;49.910;35.562;2023-05-16T10:05:16;99632.16;;;25.41;32.83
73692;BME280;61996;49.910;35.562;2023-05-16T10:08:20;99633.16;;;25.40;32.80
73692;BME280;61996;49.910;35.562;2023-05-16T10:11:24;99634.00;;;25.40;32.80
73692;BME280;61996;49.910;35.562;2023-05-16T10:14:26;99638.38;;;25.41;32.59
73692;BME280;61996;49.910;35.562;2023-05-16T10:17:30;99640.88;;;25.43;32.72
73692;BME280;61996;49.910;35.562;2023-05-16T10:20:35;99643.38;;;25.45;32.66
73692;BME280;61996;49.910;35.562;2023-05-16T10:23:41;99640.88;;;25.43;32.78
73692;BME280;61996;49.910;35.562;2023-05-16T10:26:44;99643.56;;;25.43;32.82
73692;BME280;61996;49.910;35.562;2023-05-16T10:29:46;99627.72;;;25.48;32.30
73692;BME280;61996;49.910;35.562;2023-05-16T10:32:55;99623.34;;;25.47;32.69
73692;BME280;61996;49.910;35.562;2023-05-16T10:35:58;99627.72;;;25.48;32.45
73692;BME280;61996;49.910;35.562;2023-05-16T10:39:03;99637.47;;;25.49;32.45
73692;BME280;61996;49.910;35.562;2023-05-16T10:42:07;99628.34;;;25.50;32.68
73692;BME280;61996;49.910;35.562;2023-05-16T10:45:16;99637.47;;;25.49;32.51
73692;BME280;61996;49.910;35.562;2023-05-16T10:48:28;99642.50;;;25.52;32.59
73692;BME280;61996;49.910;35.562;2023-05-16T10:51:34;99644.31;;;25.52;32.69
73692;BME280;61996;49.910;35.562;2023-05-16T10:54:39;99639.97;;;25.51;32.33
73692;BME280;61996;49.910;35.562;2023-05-16T10:57:42;99634.56;;;25.51;32.60
73692;BME280;61996;49.910;35.562;2023-05-16T11:00:46;99633.41;;;25.53;32.47
73692;BME280;61996;49.910;35.562;2023-05-16T11:04:05;99636.91;;;25.54;32.37
73692;BME280;61996;49.910;35.562;2023-05-16T11:07:08;99627.63;;;25.56;32.65
73692;BME280;61996;49.910;35.562;2023-05-16T11:10:15;99629.09;;;25.59;32.39
73692;BME280;61996;49.910;35.562;2023-05-16T11:13:18;99616.50;;;25.59;32.61
73692;BME280;61996;49.910;35.562;2023-05-16T11:16:26;99621.91;;;25.59;32.55
73692;BME280;61996;49.910;35.562;2023-05-16T11:19:33;99630.63;;;25.61;32.66
73692;BME280;61996;49.910;35.562;2023-05-16T11:22:37;99626.91;;;25.62;32.43
73692;BME280;61996;49.910;35.562;2023-05-16T11:25:43;99617.59;;;25.65;32.26
73692;BME280;61996;49.910;35.562;2023-05-16T11:28:47;99615.41;;;25.68;32.51
73692;BME280;61996;49.910;35.562;2023-05-16T11:31:51;99620.78;;;25.68;32.67
73692;BME280;61996;49.910;35.562;2023-05-16T11:34:54;99614.38;;;25.69;32.37
73692;BME280;61996;49.910;35.562;2023-05-16T11:37:57;99617.31;;;25.83;32.21
73692;BME280;61996;49.910;35.562;2023-05-16T11:41:02;99609.41;;;25.81;33.05
73692;BME280;61996;49.910;35.562;2023-05-16T11:44:06;99611.91;;;25.83;32.50
73692;BME280;61996;49.910;35.562;2023-05-16T11:47:08;99612.28;;;25.80;34.06
73692;BME280;61996;49.910;35.562;2023-05-16T11:50:13;99613.28;;;25.79;33.48
73692;BME280;61996;49.910;35.562;2023-05-16T11:53:16;99602.72;;;25.92;32.75
73692;BME280;61996;49.910;35.562;2023-05-16T11:56:20;99614.91;;;25.88;32.97
73692;BME280;61996;49.910;35.562;2023-05-16T11:59:23;99607.81;;;25.87;33.58
73692;BME280;61996;49.910;35.562;2023-05-16T12:02:27;99599.09;;;25.85;33.46
73692;BME280;61996;49.910;35.562;2023-05-16T12:05:30;99593.50;;;25.86;33.25
73692;BME280;61996;49.910;35.562;2023-05-16T12:08:35;99589.63;;;25.89;32.68
73692;BME280;61996;49.910;35.562;2023-05-16T12:11:40;99596.69;;;25.90;33.02
73692;BME280;61996;49.910;35.562;2023-05-16T12:14:43;99598.00;;;25.94;33.00
73692;BME280;61996;49.910;35.562;2023-05-16T12:17:46;99595.66;;;25.91;32.91
73692;BME280;61996;49.910;35.562;2023-05-16T12:20:50;99591.28;;;25.90;33.25
73692;BME280;61996;49.910;35.562;2023-05-16T12:23:54;99590.72;;;26.09;32.58
73692;BME280;61996;49.910;35.562;2023-05-16T12:26:58;99589.03;;;25.93;33.06
73692;BME280;61996;49.910;35.562;2023-05-16T12:30:01;99593.88;;;25.98;32.71
73692;BME280;61996;49.910;35.562;2023-05-16T12:33:06;99589.53;;;25.97;32.65
73692;BME280;61996;49.910;35.562;2023-05-16T12:36:11;99589.34;;;25.99;32.63
73692;BME280;61996;49.910;35.562;2023-05-16T12:39:14;99587.28;;;26.01;32.92
73692;BME280;61996;49.910;35.562;2023-05-16T12:42:19;99578.38;;;26.00;32.72
73692;BME280;61996;49.910;35.562;2023-05-16T12:45:22;99578.38;;;26.00;32.60
73692;BME280;61996;49.910;35.562;2023-05-16T12:48:30;99578.66;;;26.05;32.45
73692;BME280;61996;49.910;35.562;2023-05-16T12:51:33;99588.78;;;26.03;32.61
73692;BME280;61996;49.910;35.562;2023-05-16T12:54:37;99577.81;;;26.05;32.83
73692;BME280;61996;49.910;35.562;2023-05-16T12:57:42;99578.66;;;26.05;32.66
73692;BME280;61996;49.910;35.562;2023-05-16T13:00:45;99574.56;;;26.09;32.69
73692;BME280;61996;49.910;35.562;2023-05-16T13:03:49;99575.41;;;26.10;32.69
73692;BME280;61996;49.910;35.562;2023-05-16T13:06:52;99568.16;;;26.10;32.79
73692;BME280;61996;49.910;35.562;2023-05-16T13:10:00;99569.81;;;26.11;32.70
73692;BME280;61996;49.910;35.562;2023-05-16T13:13:04;99573.16;;;26.13;32.74
73692;BME280;61996;49.910;35.562;2023-05-16T13:16:07;99574.66;;;26.16;32.45
73692;BME280;61996;49.910;35.562;2023-05-16T13:19:10;99569.06;;;26.17;32.53
73692;BME280;61996;49.910;35.562;2023-05-16T13:22:13;99565.34;;;26.18;32.60
73692;BME280;61996;49.910;35.562;2023-05-16T13:25:16;99569.44;;;26.14;32.12
73692;BME280;61996;49.910;35.562;2023-05-16T13:28:20;99565.06;;;26.13;32.87
73692;BME280;61996;49.910;35.562;2023-05-16T13:31:23;99574.38;;;26.11;32.92
73692;BME280;61996;49.910;35.562;2023-05-16T13:34:26;99572.13;;;26.14;32.24
73692;BME280;61996;49.910;35.562;2023-05-16T13:37:29;99576.69;;;26.14;32.79
73692;BME280;61996;49.910;35.562;2023-05-16T13:40:32;99570.00;;;26.10;33.12
73692;BME280;61996;49.910;35.562;2023-05-16T13:43:37;99574.19;;;26.12;32.61
73692;BME280;61996;49.910;35.562;2023-05-16T13:46:40;99572.31;;;26.13;32.80
73692;BME280;61996;49.910;35.562;2023-05-16T13:49:43;99581.22;;;26.13;32.39
73692;BME280;61996;49.910;35.562;2023-05-16T13:52:46;99574.19;;;26.12;32.47
73692;BME280;61996;49.910;35.562;2023-05-16T13:55:49;99572.78;;;26.16;32.32
73692;BME280;61996;49.910;35.562;2023-05-16T13:58:53;99579.22;;;26.15;32.73
73692;BME280;61996;49.910;35.562;2023-05-16T14:02:07;99580.69;;;26.18;32.68
73692;BME280;61996;49.910;35.562;2023-05-16T14:05:10;99591.28;;;26.19;32.52
73692;BME280;61996;49.910;35.562;2023-05-16T14:08:12;99586.28;;;26.16;32.37
73692;BME280;61996;49.910;35.562;2023-05-16T14:11:15;99583.38;;;26.18;32.47
73692;BME280;61996;49.910;35.562;2023-05-16T14:14:21;99581.50;;;26.18;32.48
73692;BME280;61996;49.910;35.562;2023-05-16T14:17:24;99585.22;;;26.32;32.55
73692;BME280;61996;49.910;35.562;2023-05-16T14:20:27;99580.59;;;25.96;32.68
73692;BME280;61996;49.910;35.562;2023-05-16T14:23:30;99573.34;;;25.97;31.71
73692;BME280;61996;49.910;35.562;2023-05-16T14:26:32;99572.34;;;25.83;31.56
73692;BME280;61996;49.910;35.562;2023-05-16T14:29:37;99575.59;;;25.79;31.44
73692;BME280;61996;49.910;35.562;2023-05-16T14:32:40;99572.34;;;25.83;31.43
73692;BME280;61996;49.910;35.562;2023-05-16T14:35:42;99571.47;;;25.68;31.39
73692;BME280;61996;49.910;35.562;2023-05-16T14:38:45;99583.44;;;25.65;32.05
73692;BME280;61996;49.910;35.562;2023-05-16T14:41:49;99582.16;;;25.61;31.38
73692;BME280;61996;49.910;35.562;2023-05-16T14:44:53;99580.38;;;25.54;31.48
73692;BME280;61996;49.910;35.562;2023-05-16T14:47:56;99580.94;;;25.64;32.10
73692;BME280;61996;49.910;35.562;2023-05-16T14:50:59;99592.88;;;25.99;31.82
73692;BME280;61996;49.910;35.562;2023-05-16T14:54:02;99591.75;;;26.08;32.39
73692;BME280;61996;49.910;35.562;2023-05-16T14:57:06;99594.56;;;26.15;31.42
73692;BME280;61996;49.910;35.562;2023-05-16T15:00:11;99609.78;;;26.22;31.02
73692;BME280;61996;49.910;35.562;2023-05-16T15:03:14;99612.19;;;26.17;31.15
73692;BME280;61996;49.910;35.562;2023-05-16T15:06:17;99612.84;;;26.19;31.13
73692;BME280;61996;49.910;35.562;2023-05-16T15:09:20;99614.25;;;26.15;31.42
73692;BME280;61996;49.910;35.562;2023-05-16T15:12:23;99613.41;;;26.15;31.28
73692;BME280;61996;49.910;35.562;2023-05-16T15:15:27;99618.81;;;26.15;31.19
73692;BME280;61996;49.910;35.562;2023-05-16T15:18:30;99614.50;;;26.20;31.48
73692;BME280;61996;49.910;35.562;2023-05-16T15:21:33;99610.34;;;26.18;31.09
73692;BME280;61996;49.910;35.562;2023-05-16T15:24:36;99622.22;;;26.23;31.03
73692;BME280;61996;49.910;35.562;2023-05-16T15:27:39;99613.97;;;26.10;31.12
73692;BME280;61996;49.910;35.562;2023-05-16T15:30:45;99621.50;;;26.15;30.70
73692;BME280;61996;49.910;35.562;2023-05-16T15:33:47;99617.09;;;26.14;30.63
73692;BME280;61996;49.910;35.562;2023-05-16T15:36:51;99625.19;;;26.14;30.78
73692;BME280;61996;49.910;35.562;2023-05-16T15:39:54;99628.09;;;26.12;30.78
73692;BME280;61996;49.910;35.562;2023-05-16T15:42:56;99622.25;;;26.09;30.88
73692;BME280;61996;49.910;35.562;2023-05-16T15:46:01;99631.34;;;26.08;31.59
73692;BME280;61996;49.910;35.562;2023-05-16T15:49:05;99633.84;;;24.88;32.03
73692;BME280;61996;49.910;35.562;2023-05-16T15:52:07;99632.41;;;24.77;32.34
73692;BME280;61996;49.910;35.562;2023-05-16T15:55:10;99632.88;;;25.73;32.96
73692;BME280;61996;49.910;35.562;2023-05-16T15:58:13;99642.00;;;25.86;31.64
73692;BME280;61996;49.910;35.562;2023-05-16T16:01:17;99645.63;;;25.93;31.43